VTD4008 USRR-UIII
Flight info
| Callsign | VTD4008 |
|---|---|
| Flight time | 2h 43m |
| Altitude | 37000 |
| Route | ULGUN1E ULGUN M59 NWK T631 SOREB B807 ENS W119 BRT G490 NH NH5B |
| Aircraft | A320/M-SDE3FGHIRWY/LB1 |
Departure
| Time | 2026-04-26 05:42 |
|---|---|
| Airport | Surgut International Airport (USRR) |
Arrival
| Time | 2026-04-26 08:26 |
|---|---|
| Airport | Irkutsk International Airport (UIII) |
| Time | Latitude | Longitude | Altitude | Speed | Heading |
|---|---|---|---|---|---|
| 2026-04-26 05:22 | 61.34090 | 73.40701 | 215 ft | 0 kts | 179° |
| 2026-04-26 05:35 | 61.34110 | 73.40700 | 213 ft | 4 kts | 177° |
| 2026-04-26 05:35 | 61.34137 | 73.40696 | 212 ft | 4 kts | 171° |
| 2026-04-26 05:35 | 61.34160 | 73.40685 | 211 ft | 4 kts | 157° |
| 2026-04-26 05:36 | 61.34179 | 73.40658 | 209 ft | 4 kts | 103° |
| 2026-04-26 05:36 | 61.34181 | 73.40646 | 211 ft | 0 kts | 89° |
| 2026-04-26 05:38 | 61.34181 | 73.40648 | 208 ft | 1 kts | 89° |
| 2026-04-26 05:38 | 61.34181 | 73.40764 | 208 ft | 10 kts | 89° |
| 2026-04-26 05:39 | 61.34182 | 73.40893 | 208 ft | 8 kts | 89° |
| 2026-04-26 05:39 | 61.34182 | 73.41008 | 208 ft | 11 kts | 89° |
| 2026-04-26 05:39 | 61.34183 | 73.41176 | 208 ft | 11 kts | 89° |
| 2026-04-26 05:39 | 61.34184 | 73.41381 | 216 ft | 18 kts | 90° |
| 2026-04-26 05:40 | 61.34188 | 73.41648 | 208 ft | 19 kts | 87° |
| 2026-04-26 05:40 | 61.34189 | 73.41931 | 208 ft | 20 kts | 89° |
| 2026-04-26 05:40 | 61.34191 | 73.42232 | 208 ft | 21 kts | 89° |
| 2026-04-26 05:40 | 61.34241 | 73.42501 | 216 ft | 21 kts | 37° |
| 2026-04-26 05:41 | 61.34367 | 73.42659 | 207 ft | 15 kts | 18° |
| 2026-04-26 05:41 | 61.34396 | 73.42567 | 202 ft | 8 kts | 265° |
| 2026-04-26 05:41 | 61.34395 | 73.42555 | 202 ft | 0 kts | 266° |
| 2026-04-26 05:41 | 61.34395 | 73.42536 | 202 ft | 12 kts | 266° |
| 2026-04-26 05:42 | 61.34389 | 73.41767 | 213 ft | 89 kts | 269° |
| 2026-04-26 05:42 | 61.34388 | 73.39934 | 212 ft | 159 kts | 269° |
| 2026-04-26 05:42 | 61.34392 | 73.37384 | 623 ft | 184 kts | 270° |
| 2026-04-26 05:42 | 61.34465 | 73.34726 | 1457 ft | 184 kts | 278° |
| 2026-04-26 05:43 | 61.34804 | 73.32129 | 2160 ft | 192 kts | 289° |
| 2026-04-26 05:43 | 61.35448 | 73.29481 | 2385 ft | 218 kts | 302° |
| 2026-04-26 05:43 | 61.36510 | 73.26956 | 2709 ft | 245 kts | 318° |
| 2026-04-26 05:43 | 61.38017 | 73.25017 | 3254 ft | 263 kts | 336° |
| 2026-04-26 05:44 | 61.39817 | 73.24048 | 4081 ft | 272 kts | 353° |
| 2026-04-26 05:44 | 61.41717 | 73.24254 | 4989 ft | 276 kts | 11° |
| 2026-04-26 05:44 | 61.43534 | 73.25718 | 5803 ft | 286 kts | 30° |
| 2026-04-26 05:44 | 61.45040 | 73.28394 | 6529 ft | 293 kts | 51° |
| 2026-04-26 05:45 | 61.46057 | 73.32078 | 7309 ft | 294 kts | 72° |
| 2026-04-26 05:45 | 61.46454 | 73.36253 | 8123 ft | 293 kts | 92° |
| 2026-04-26 05:45 | 61.46186 | 73.40418 | 8972 ft | 288 kts | 112° |
| 2026-04-26 05:45 | 61.45520 | 73.44412 | 9723 ft | 293 kts | 111° |
| 2026-04-26 05:46 | 61.45019 | 73.48533 | 10602 ft | 293 kts | 106° |
| 2026-04-26 05:46 | 61.44715 | 73.52804 | 11237 ft | 303 kts | 100° |
| 2026-04-26 05:46 | 61.44629 | 73.57281 | 11879 ft | 312 kts | 94° |
| 2026-04-26 05:46 | 61.44749 | 73.61869 | 12560 ft | 320 kts | 89° |
| 2026-04-26 05:47 | 61.45078 | 73.66533 | 13140 ft | 330 kts | 85° |
| 2026-04-26 05:47 | 61.45496 | 73.71426 | 13302 ft | 353 kts | 84° |
| 2026-04-26 05:47 | 61.45946 | 73.76633 | 13449 ft | 374 kts | 84° |
| 2026-04-26 05:47 | 61.46418 | 73.82080 | 13826 ft | 384 kts | 84° |
| 2026-04-26 05:48 | 61.46899 | 73.87617 | 14378 ft | 389 kts | 85° |
| 2026-04-26 05:48 | 61.47384 | 73.93208 | 14964 ft | 393 kts | 85° |
| 2026-04-26 05:48 | 61.47869 | 73.98867 | 15545 ft | 397 kts | 86° |
| 2026-04-26 05:48 | 61.48354 | 74.04578 | 16124 ft | 400 kts | 86° |
| 2026-04-26 05:49 | 61.48832 | 74.10268 | 16691 ft | 404 kts | 87° |
| 2026-04-26 05:49 | 61.49398 | 74.21928 | 17807 ft | 398 kts | 102° |
| 2026-04-26 05:49 | 61.48994 | 74.27599 | 18304 ft | 390 kts | 113° |
| 2026-04-26 05:50 | 61.48135 | 74.32929 | 18770 ft | 383 kts | 124° |
| 2026-04-26 05:50 | 61.46968 | 74.37915 | 19155 ft | 384 kts | 126° |
| 2026-04-26 05:50 | 61.45764 | 74.42939 | 19590 ft | 389 kts | 126° |
| 2026-04-26 05:50 | 61.44549 | 74.48027 | 20040 ft | 392 kts | 126° |
| 2026-04-26 05:51 | 61.43329 | 74.53152 | 20504 ft | 396 kts | 126° |
| 2026-04-26 05:51 | 61.42098 | 74.58324 | 20956 ft | 399 kts | 126° |
| 2026-04-26 05:51 | 61.40856 | 74.63522 | 21405 ft | 402 kts | 127° |
| 2026-04-26 05:51 | 61.39598 | 74.68758 | 21848 ft | 405 kts | 127° |
| 2026-04-26 05:52 | 61.38328 | 74.74029 | 22289 ft | 408 kts | 127° |
| 2026-04-26 05:52 | 61.37047 | 74.79338 | 22712 ft | 411 kts | 127° |
| 2026-04-26 05:52 | 61.35755 | 74.84684 | 23147 ft | 414 kts | 127° |
| 2026-04-26 05:52 | 61.34467 | 74.89999 | 23506 ft | 417 kts | 127° |
| 2026-04-26 05:53 | 61.33153 | 74.95405 | 23859 ft | 420 kts | 127° |
| 2026-04-26 05:53 | 61.31827 | 75.00850 | 24213 ft | 422 kts | 128° |
| 2026-04-26 05:53 | 61.30488 | 75.06314 | 24551 ft | 425 kts | 128° |
| 2026-04-26 05:53 | 61.29139 | 75.11794 | 24886 ft | 427 kts | 128° |
| 2026-04-26 05:54 | 61.27778 | 75.17311 | 25235 ft | 429 kts | 128° |
| 2026-04-26 05:54 | 61.26402 | 75.22837 | 25570 ft | 431 kts | 129° |
| 2026-04-26 05:54 | 61.25010 | 75.28373 | 25900 ft | 433 kts | 129° |
| 2026-04-26 05:54 | 61.23605 | 75.33932 | 26224 ft | 436 kts | 129° |
| 2026-04-26 05:55 | 61.22192 | 75.39517 | 26552 ft | 438 kts | 129° |
| 2026-04-26 05:55 | 61.20769 | 75.45128 | 26872 ft | 441 kts | 129° |
| 2026-04-26 05:55 | 61.19335 | 75.50765 | 27196 ft | 443 kts | 129° |
| 2026-04-26 05:55 | 61.17906 | 75.56349 | 27507 ft | 445 kts | 129° |
| 2026-04-26 05:56 | 61.16450 | 75.62026 | 27761 ft | 447 kts | 129° |
| 2026-04-26 05:56 | 61.14985 | 75.67735 | 28014 ft | 451 kts | 129° |
| 2026-04-26 05:56 | 61.13510 | 75.73478 | 28304 ft | 453 kts | 129° |
| 2026-04-26 05:56 | 61.12024 | 75.79259 | 28590 ft | 456 kts | 130° |
| 2026-04-26 05:57 | 61.10527 | 75.85064 | 28862 ft | 458 kts | 130° |
| 2026-04-26 05:57 | 61.09023 | 75.90888 | 29136 ft | 460 kts | 130° |
| 2026-04-26 05:57 | 61.07509 | 75.96731 | 29407 ft | 462 kts | 130° |
| 2026-04-26 05:57 | 61.05985 | 76.02596 | 29664 ft | 464 kts | 130° |
| 2026-04-26 05:58 | 61.04451 | 76.08481 | 29814 ft | 468 kts | 130° |
| 2026-04-26 05:58 | 61.02901 | 76.14404 | 29994 ft | 470 kts | 130° |
| 2026-04-26 05:58 | 61.01340 | 76.20354 | 30221 ft | 472 kts | 130° |
| 2026-04-26 05:58 | 60.99778 | 76.26312 | 30485 ft | 472 kts | 129° |
| 2026-04-26 05:59 | 60.98218 | 76.32255 | 30831 ft | 471 kts | 130° |
| 2026-04-26 05:59 | 60.96658 | 76.38173 | 31177 ft | 469 kts | 130° |
| 2026-04-26 05:59 | 60.95100 | 76.44058 | 31524 ft | 468 kts | 129° |
| 2026-04-26 05:59 | 60.93716 | 76.50190 | 31758 ft | 479 kts | 122° |
| 2026-04-26 06:00 | 60.92492 | 76.56566 | 32043 ft | 479 kts | 122° |
| 2026-04-26 06:00 | 60.91271 | 76.62935 | 32382 ft | 478 kts | 122° |
| 2026-04-26 06:00 | 60.90053 | 76.69272 | 32729 ft | 476 kts | 122° |
| 2026-04-26 06:00 | 60.88833 | 76.75597 | 33067 ft | 475 kts | 122° |
| 2026-04-26 06:01 | 60.87613 | 76.81892 | 33421 ft | 473 kts | 122° |
| 2026-04-26 06:01 | 60.86410 | 76.88063 | 33701 ft | 472 kts | 122° |
| 2026-04-26 06:01 | 60.85181 | 76.94312 | 33874 ft | 473 kts | 122° |
| 2026-04-26 06:01 | 60.83946 | 77.00571 | 34097 ft | 474 kts | 121° |
| 2026-04-26 06:02 | 60.82714 | 77.06838 | 34348 ft | 474 kts | 121° |
| 2026-04-26 06:02 | 60.81494 | 77.13093 | 34606 ft | 473 kts | 121° |
| 2026-04-26 06:02 | 60.80275 | 77.19347 | 34854 ft | 472 kts | 121° |
| 2026-04-26 06:02 | 60.79056 | 77.25580 | 35101 ft | 471 kts | 121° |
| 2026-04-26 06:03 | 60.77836 | 77.31802 | 35337 ft | 470 kts | 121° |
| 2026-04-26 06:03 | 60.76614 | 77.38002 | 35576 ft | 470 kts | 120° |
| 2026-04-26 06:03 | 60.75801 | 77.42101 | 35735 ft | 469 kts | 120° |
| 2026-04-26 06:03 | 60.74574 | 77.48269 | 35904 ft | 468 kts | 120° |
| 2026-04-26 06:04 | 60.73340 | 77.54433 | 36093 ft | 468 kts | 120° |
| 2026-04-26 06:04 | 60.72106 | 77.60588 | 36300 ft | 468 kts | 120° |
| 2026-04-26 06:04 | 60.70999 | 77.66873 | 36471 ft | 474 kts | 111° |
| 2026-04-26 06:04 | 60.70304 | 77.73489 | 36655 ft | 478 kts | 108° |
| 2026-04-26 06:05 | 60.69668 | 77.80154 | 36702 ft | 478 kts | 108° |
| 2026-04-26 06:05 | 60.68384 | 77.93438 | 36700 ft | 477 kts | 108° |
| 2026-04-26 06:06 | 60.67075 | 78.06686 | 36702 ft | 476 kts | 108° |
| 2026-04-26 06:06 | 60.65746 | 78.19916 | 36697 ft | 476 kts | 108° |
| 2026-04-26 06:07 | 60.64405 | 78.33134 | 36702 ft | 476 kts | 108° |
| 2026-04-26 06:07 | 60.63056 | 78.46339 | 36678 ft | 477 kts | 108° |
| 2026-04-26 06:08 | 60.61685 | 78.59558 | 36682 ft | 478 kts | 109° |
| 2026-04-26 06:08 | 60.60309 | 78.72799 | 36686 ft | 478 kts | 108° |
| 2026-04-26 06:09 | 60.58933 | 78.86044 | 36700 ft | 479 kts | 109° |
| 2026-04-26 06:09 | 60.57555 | 78.99196 | 36672 ft | 478 kts | 108° |
| 2026-04-26 06:10 | 60.56149 | 79.12428 | 36666 ft | 478 kts | 108° |
| 2026-04-26 06:10 | 60.54729 | 79.25629 | 36689 ft | 477 kts | 109° |
| 2026-04-26 06:11 | 60.53294 | 79.38788 | 36697 ft | 477 kts | 109° |
| 2026-04-26 06:11 | 60.51842 | 79.51915 | 36698 ft | 476 kts | 109° |
| 2026-04-26 06:12 | 60.50384 | 79.65029 | 36707 ft | 477 kts | 109° |
| 2026-04-26 06:12 | 60.48912 | 79.78151 | 36708 ft | 477 kts | 109° |
| 2026-04-26 06:13 | 60.47437 | 79.91253 | 36689 ft | 477 kts | 109° |
| 2026-04-26 06:13 | 60.45950 | 80.04333 | 36695 ft | 476 kts | 109° |
| 2026-04-26 06:14 | 60.44456 | 80.17294 | 36709 ft | 475 kts | 109° |
| 2026-04-26 06:14 | 60.42937 | 80.30337 | 36703 ft | 476 kts | 109° |
| 2026-04-26 06:15 | 60.41422 | 80.43378 | 36703 ft | 476 kts | 109° |
| 2026-04-26 06:15 | 60.39911 | 80.56422 | 36675 ft | 476 kts | 109° |
| 2026-04-26 06:16 | 60.38384 | 80.69487 | 36711 ft | 478 kts | 109° |
| 2026-04-26 06:16 | 60.36834 | 80.82556 | 36718 ft | 478 kts | 109° |
| 2026-04-26 06:17 | 60.35272 | 80.95600 | 36726 ft | 478 kts | 109° |
| 2026-04-26 06:17 | 60.33705 | 81.08553 | 36732 ft | 478 kts | 109° |
| 2026-04-26 06:18 | 60.32116 | 81.21581 | 36741 ft | 478 kts | 109° |
| 2026-04-26 06:18 | 60.30511 | 81.34581 | 36723 ft | 478 kts | 109° |
| 2026-04-26 06:19 | 60.28886 | 81.47583 | 36734 ft | 478 kts | 109° |
| 2026-04-26 06:19 | 60.27254 | 81.60564 | 36739 ft | 478 kts | 109° |
| 2026-04-26 06:20 | 60.25626 | 81.73563 | 36743 ft | 479 kts | 110° |
| 2026-04-26 06:20 | 60.23981 | 81.86552 | 36755 ft | 479 kts | 110° |
| 2026-04-26 06:21 | 60.22315 | 81.99521 | 36740 ft | 479 kts | 110° |
| 2026-04-26 06:21 | 60.20638 | 82.12390 | 36738 ft | 479 kts | 110° |
| 2026-04-26 06:22 | 60.18932 | 82.25316 | 36755 ft | 479 kts | 110° |
| 2026-04-26 06:22 | 60.17224 | 82.38247 | 36770 ft | 479 kts | 110° |
| 2026-04-26 06:23 | 60.15513 | 82.51177 | 36777 ft | 479 kts | 110° |
| 2026-04-26 06:23 | 60.13781 | 82.64090 | 36787 ft | 479 kts | 110° |
| 2026-04-26 06:24 | 60.12039 | 82.76982 | 36784 ft | 479 kts | 110° |
| 2026-04-26 06:24 | 60.10285 | 82.89873 | 36792 ft | 479 kts | 110° |
| 2026-04-26 06:25 | 60.08512 | 83.02731 | 36796 ft | 478 kts | 110° |
| 2026-04-26 06:25 | 60.06739 | 83.15570 | 36800 ft | 479 kts | 110° |
| 2026-04-26 06:26 | 60.04961 | 83.28327 | 36797 ft | 478 kts | 111° |
| 2026-04-26 06:26 | 60.03153 | 83.41137 | 36774 ft | 478 kts | 111° |
| 2026-04-26 06:27 | 60.01327 | 83.53952 | 36753 ft | 479 kts | 110° |
| 2026-04-26 06:27 | 59.99497 | 83.66764 | 36777 ft | 480 kts | 110° |
| 2026-04-26 06:28 | 59.97653 | 83.79575 | 36788 ft | 480 kts | 111° |
| 2026-04-26 06:28 | 59.95791 | 83.92389 | 36805 ft | 480 kts | 111° |
| 2026-04-26 06:29 | 59.93917 | 84.05175 | 36800 ft | 480 kts | 111° |
| 2026-04-26 06:29 | 59.92040 | 84.17877 | 36811 ft | 481 kts | 110° |
| 2026-04-26 06:30 | 59.90132 | 84.30674 | 36816 ft | 482 kts | 111° |
| 2026-04-26 06:30 | 59.88214 | 84.43444 | 36816 ft | 481 kts | 111° |
| 2026-04-26 06:31 | 59.86291 | 84.56201 | 36827 ft | 481 kts | 111° |
| 2026-04-26 06:31 | 59.84360 | 84.68941 | 36828 ft | 481 kts | 111° |
| 2026-04-26 06:32 | 59.82410 | 84.81657 | 36826 ft | 481 kts | 111° |
| 2026-04-26 06:32 | 59.80443 | 84.94352 | 36826 ft | 481 kts | 111° |
| 2026-04-26 06:33 | 59.78466 | 85.07051 | 36808 ft | 481 kts | 111° |
| 2026-04-26 06:33 | 59.76489 | 85.19633 | 36824 ft | 481 kts | 111° |
| 2026-04-26 06:34 | 59.74491 | 85.32309 | 36851 ft | 481 kts | 111° |
| 2026-04-26 06:34 | 59.72480 | 85.44967 | 36846 ft | 481 kts | 111° |
| 2026-04-26 06:35 | 59.70459 | 85.57594 | 36862 ft | 481 kts | 111° |
| 2026-04-26 06:35 | 59.68426 | 85.70207 | 36868 ft | 481 kts | 111° |
| 2026-04-26 06:36 | 59.66376 | 85.82807 | 36878 ft | 481 kts | 111° |
| 2026-04-26 06:36 | 59.64312 | 85.95380 | 36881 ft | 480 kts | 111° |
| 2026-04-26 06:37 | 59.62238 | 86.07935 | 36883 ft | 480 kts | 111° |
| 2026-04-26 06:37 | 59.60187 | 86.20404 | 36881 ft | 481 kts | 111° |
| 2026-04-26 06:38 | 59.58127 | 86.32969 | 36888 ft | 481 kts | 111° |
| 2026-04-26 06:38 | 59.56055 | 86.45519 | 36916 ft | 481 kts | 111° |
| 2026-04-26 06:39 | 59.53960 | 86.58033 | 36894 ft | 481 kts | 111° |
| 2026-04-26 06:39 | 59.51857 | 86.70529 | 36921 ft | 480 kts | 111° |
| 2026-04-26 06:40 | 59.49743 | 86.83015 | 36914 ft | 480 kts | 111° |
| 2026-04-26 06:40 | 59.47624 | 86.95483 | 36927 ft | 480 kts | 111° |
| 2026-04-26 06:41 | 59.45485 | 87.07928 | 36942 ft | 480 kts | 111° |
| 2026-04-26 06:41 | 59.43327 | 87.20341 | 36954 ft | 480 kts | 111° |
| 2026-04-26 06:42 | 59.41156 | 87.32749 | 36952 ft | 480 kts | 112° |
| 2026-04-26 06:42 | 59.38984 | 87.45161 | 36954 ft | 481 kts | 111° |
| 2026-04-26 06:43 | 59.36800 | 87.57548 | 36954 ft | 481 kts | 111° |
| 2026-04-26 06:43 | 59.34605 | 87.69865 | 36976 ft | 482 kts | 111° |
| 2026-04-26 06:44 | 59.32396 | 87.82246 | 36978 ft | 482 kts | 111° |
| 2026-04-26 06:44 | 59.30171 | 87.94628 | 36992 ft | 482 kts | 111° |
| 2026-04-26 06:45 | 59.27936 | 88.06993 | 36993 ft | 482 kts | 112° |
| 2026-04-26 06:45 | 59.25681 | 88.19345 | 36986 ft | 482 kts | 111° |
| 2026-04-26 06:46 | 59.23411 | 88.31685 | 37006 ft | 482 kts | 111° |
| 2026-04-26 06:46 | 59.21125 | 88.44003 | 37004 ft | 483 kts | 112° |
| 2026-04-26 06:47 | 59.18833 | 88.56302 | 37011 ft | 482 kts | 112° |
| 2026-04-26 06:47 | 59.16550 | 88.68603 | 37012 ft | 482 kts | 111° |
| 2026-04-26 06:48 | 59.14265 | 88.80904 | 37017 ft | 482 kts | 111° |
| 2026-04-26 06:48 | 59.11960 | 88.93156 | 37015 ft | 482 kts | 111° |
| 2026-04-26 06:49 | 59.09658 | 89.05327 | 37026 ft | 481 kts | 112° |
| 2026-04-26 06:49 | 59.07328 | 89.17545 | 37020 ft | 481 kts | 112° |
| 2026-04-26 06:50 | 59.04990 | 89.29724 | 37037 ft | 481 kts | 112° |
| 2026-04-26 06:50 | 59.02644 | 89.41903 | 37015 ft | 481 kts | 112° |
| 2026-04-26 06:51 | 59.00309 | 89.53969 | 37036 ft | 480 kts | 112° |
| 2026-04-26 06:51 | 58.96764 | 89.72113 | 37044 ft | 479 kts | 112° |
| 2026-04-26 06:52 | 58.94398 | 89.84178 | 37046 ft | 479 kts | 112° |
| 2026-04-26 06:52 | 58.92007 | 89.96212 | 37047 ft | 479 kts | 112° |
| 2026-04-26 06:53 | 58.89604 | 90.08237 | 37059 ft | 479 kts | 112° |
| 2026-04-26 06:53 | 58.87195 | 90.20262 | 37053 ft | 480 kts | 112° |
| 2026-04-26 06:54 | 58.84771 | 90.32282 | 37061 ft | 480 kts | 112° |
| 2026-04-26 06:54 | 58.82331 | 90.44295 | 37064 ft | 480 kts | 112° |
| 2026-04-26 06:55 | 58.79885 | 90.56289 | 37071 ft | 481 kts | 112° |
| 2026-04-26 06:55 | 58.77445 | 90.68195 | 37070 ft | 481 kts | 112° |
| 2026-04-26 06:56 | 58.74969 | 90.80177 | 37058 ft | 481 kts | 112° |
| 2026-04-26 06:56 | 58.72487 | 90.92118 | 37067 ft | 481 kts | 112° |
| 2026-04-26 06:57 | 58.69983 | 91.04049 | 37086 ft | 481 kts | 112° |
| 2026-04-26 06:57 | 58.67473 | 91.15966 | 37093 ft | 481 kts | 112° |
| 2026-04-26 06:58 | 58.64963 | 91.27874 | 37110 ft | 481 kts | 112° |
| 2026-04-26 06:58 | 58.62867 | 91.37767 | 37108 ft | 481 kts | 112° |
| 2026-04-26 06:59 | 58.59911 | 91.51571 | 37119 ft | 481 kts | 112° |
| 2026-04-26 06:59 | 58.57363 | 91.63444 | 37111 ft | 482 kts | 112° |
| 2026-04-26 07:00 | 58.55219 | 91.73369 | 37115 ft | 482 kts | 112° |
| 2026-04-26 07:00 | 58.52643 | 91.85203 | 37131 ft | 482 kts | 112° |
| 2026-04-26 07:01 | 58.50070 | 91.96942 | 37138 ft | 482 kts | 112° |
| 2026-04-26 07:01 | 58.47468 | 92.08768 | 37144 ft | 482 kts | 112° |
| 2026-04-26 07:02 | 58.45011 | 92.20679 | 37133 ft | 482 kts | 108° |
| 2026-04-26 07:02 | 58.43012 | 92.32860 | 37162 ft | 481 kts | 105° |
| 2026-04-26 07:03 | 58.41088 | 92.45063 | 37163 ft | 480 kts | 107° |
| 2026-04-26 07:03 | 58.39021 | 92.57169 | 37177 ft | 480 kts | 107° |
| 2026-04-26 07:04 | 58.36875 | 92.69196 | 37171 ft | 479 kts | 108° |
| 2026-04-26 07:04 | 58.34718 | 92.81217 | 37193 ft | 480 kts | 108° |
| 2026-04-26 07:05 | 58.32597 | 92.93165 | 37184 ft | 479 kts | 108° |
| 2026-04-26 07:05 | 58.30462 | 93.05174 | 37201 ft | 479 kts | 108° |
| 2026-04-26 07:06 | 58.28307 | 93.17167 | 37209 ft | 479 kts | 108° |
| 2026-04-26 07:06 | 58.26134 | 93.29131 | 37212 ft | 479 kts | 108° |
| 2026-04-26 07:07 | 58.23951 | 93.41080 | 37213 ft | 478 kts | 108° |
| 2026-04-26 07:07 | 58.21775 | 93.52996 | 37219 ft | 478 kts | 108° |
| 2026-04-26 07:08 | 58.19583 | 93.64886 | 37213 ft | 478 kts | 108° |
| 2026-04-26 07:08 | 58.17380 | 93.76774 | 37239 ft | 478 kts | 108° |
| 2026-04-26 07:09 | 58.15159 | 93.88636 | 37232 ft | 478 kts | 108° |
| 2026-04-26 07:09 | 58.12925 | 94.00488 | 37219 ft | 478 kts | 108° |
| 2026-04-26 07:11 | 58.07328 | 94.29967 | 37257 ft | 478 kts | 108° |
| 2026-04-26 07:11 | 58.05065 | 94.41774 | 37253 ft | 478 kts | 108° |
| 2026-04-26 07:12 | 58.02788 | 94.53576 | 37246 ft | 478 kts | 108° |
| 2026-04-26 07:12 | 58.00497 | 94.65360 | 37245 ft | 479 kts | 109° |
| 2026-04-26 07:13 | 57.98187 | 94.77125 | 37248 ft | 479 kts | 109° |
| 2026-04-26 07:13 | 57.95862 | 94.88884 | 37266 ft | 479 kts | 109° |
| 2026-04-26 07:14 | 57.93548 | 95.00562 | 37267 ft | 479 kts | 108° |
| 2026-04-26 07:14 | 57.91216 | 95.12297 | 37264 ft | 479 kts | 108° |
| 2026-04-26 07:15 | 57.88873 | 95.24022 | 37272 ft | 479 kts | 109° |
| 2026-04-26 07:15 | 57.86514 | 95.35720 | 37271 ft | 479 kts | 109° |
| 2026-04-26 07:16 | 57.84141 | 95.47406 | 37279 ft | 479 kts | 109° |
| 2026-04-26 07:16 | 57.81768 | 95.59089 | 37279 ft | 479 kts | 109° |
| 2026-04-26 07:17 | 57.79386 | 95.70748 | 37274 ft | 479 kts | 109° |
| 2026-04-26 07:17 | 57.76981 | 95.82380 | 37281 ft | 479 kts | 109° |
| 2026-04-26 07:18 | 57.74567 | 95.94014 | 37283 ft | 479 kts | 109° |
| 2026-04-26 07:18 | 57.72155 | 96.05553 | 37312 ft | 479 kts | 109° |
| 2026-04-26 07:19 | 57.69721 | 96.17154 | 37315 ft | 479 kts | 109° |
| 2026-04-26 07:19 | 57.67276 | 96.28749 | 37310 ft | 479 kts | 109° |
| 2026-04-26 07:20 | 57.64821 | 96.40306 | 37307 ft | 479 kts | 109° |
| 2026-04-26 07:20 | 57.62358 | 96.51858 | 37305 ft | 479 kts | 109° |
| 2026-04-26 07:21 | 57.59882 | 96.63395 | 37312 ft | 479 kts | 109° |
| 2026-04-26 07:21 | 57.57392 | 96.74921 | 37325 ft | 479 kts | 109° |
| 2026-04-26 07:22 | 57.54891 | 96.86415 | 37324 ft | 479 kts | 109° |
| 2026-04-26 07:22 | 57.52390 | 96.97892 | 37336 ft | 479 kts | 109° |
| 2026-04-26 07:23 | 57.49871 | 97.09360 | 37314 ft | 479 kts | 109° |
| 2026-04-26 07:23 | 57.47344 | 97.20798 | 37350 ft | 478 kts | 110° |
| 2026-04-26 07:24 | 57.44808 | 97.32242 | 37327 ft | 479 kts | 109° |
| 2026-04-26 07:24 | 57.42269 | 97.43654 | 37320 ft | 479 kts | 109° |
| 2026-04-26 07:25 | 57.39704 | 97.55048 | 37335 ft | 478 kts | 110° |
| 2026-04-26 07:25 | 57.37138 | 97.66430 | 37336 ft | 478 kts | 109° |
| 2026-04-26 07:26 | 57.34573 | 97.77792 | 37346 ft | 478 kts | 109° |
| 2026-04-26 07:26 | 57.32006 | 97.89058 | 37343 ft | 478 kts | 109° |
| 2026-04-26 07:27 | 57.29401 | 98.00391 | 37337 ft | 478 kts | 109° |
| 2026-04-26 07:27 | 57.26791 | 98.11700 | 37343 ft | 478 kts | 110° |
| 2026-04-26 07:28 | 57.24170 | 98.23007 | 37341 ft | 478 kts | 110° |
| 2026-04-26 07:28 | 57.21537 | 98.34299 | 37374 ft | 478 kts | 109° |
| 2026-04-26 07:29 | 57.18900 | 98.45567 | 37354 ft | 479 kts | 109° |
| 2026-04-26 07:29 | 57.16248 | 98.56819 | 37350 ft | 478 kts | 110° |
| 2026-04-26 07:30 | 57.13586 | 98.68043 | 37350 ft | 478 kts | 110° |
| 2026-04-26 07:30 | 57.10919 | 98.79257 | 37347 ft | 478 kts | 110° |
| 2026-04-26 07:31 | 57.08244 | 98.90457 | 37375 ft | 478 kts | 109° |
| 2026-04-26 07:31 | 57.05570 | 99.01562 | 37344 ft | 478 kts | 109° |
| 2026-04-26 07:32 | 57.02866 | 99.12742 | 37344 ft | 478 kts | 109° |
| 2026-04-26 07:32 | 57.00169 | 99.23888 | 37336 ft | 478 kts | 110° |
| 2026-04-26 07:33 | 56.97454 | 99.35019 | 37328 ft | 478 kts | 110° |
| 2026-04-26 07:33 | 56.94718 | 99.46117 | 37348 ft | 478 kts | 109° |
| 2026-04-26 07:34 | 56.91983 | 99.57213 | 37345 ft | 478 kts | 109° |
| 2026-04-26 07:34 | 56.89244 | 99.68283 | 37334 ft | 478 kts | 110° |
| 2026-04-26 07:35 | 56.86509 | 99.79280 | 37330 ft | 478 kts | 110° |
| 2026-04-26 07:35 | 56.83743 | 99.90319 | 37324 ft | 478 kts | 110° |
| 2026-04-26 07:36 | 56.80963 | 100.01352 | 37360 ft | 478 kts | 110° |
| 2026-04-26 07:36 | 56.78176 | 100.12371 | 37345 ft | 478 kts | 109° |
| 2026-04-26 07:37 | 56.75393 | 100.23374 | 37332 ft | 478 kts | 110° |
| 2026-04-26 07:37 | 56.72601 | 100.34350 | 37324 ft | 478 kts | 110° |
| 2026-04-26 07:38 | 56.69791 | 100.45324 | 37321 ft | 478 kts | 110° |
| 2026-04-26 07:38 | 56.66987 | 100.56208 | 37360 ft | 478 kts | 110° |
| 2026-04-26 07:39 | 56.64157 | 100.67140 | 37334 ft | 478 kts | 110° |
| 2026-04-26 07:39 | 56.61312 | 100.78071 | 37334 ft | 478 kts | 110° |
| 2026-04-26 07:40 | 56.58462 | 100.88984 | 37332 ft | 479 kts | 110° |
| 2026-04-26 07:40 | 56.55605 | 100.99892 | 37340 ft | 479 kts | 110° |
| 2026-04-26 07:41 | 56.52731 | 101.10777 | 37339 ft | 479 kts | 110° |
| 2026-04-26 07:41 | 56.49844 | 101.21641 | 37345 ft | 479 kts | 110° |
| 2026-04-26 07:42 | 56.46944 | 101.32496 | 37356 ft | 479 kts | 110° |
| 2026-04-26 07:42 | 56.44039 | 101.43322 | 37362 ft | 479 kts | 111° |
| 2026-04-26 07:43 | 56.41118 | 101.54114 | 37366 ft | 478 kts | 111° |
| 2026-04-26 07:43 | 56.37594 | 101.64377 | 37390 ft | 487 kts | 127° |
| 2026-04-26 07:43 | 56.35204 | 101.68623 | 37384 ft | 492 kts | 138° |
| 2026-04-26 07:44 | 56.32390 | 101.72149 | 37372 ft | 495 kts | 149° |
| 2026-04-26 07:44 | 56.26119 | 101.77349 | 37342 ft | 496 kts | 155° |
| 2026-04-26 07:45 | 56.19792 | 101.82315 | 37338 ft | 496 kts | 155° |
| 2026-04-26 07:45 | 56.13454 | 101.87271 | 37342 ft | 497 kts | 155° |
| 2026-04-26 07:46 | 56.07115 | 101.92212 | 37356 ft | 497 kts | 155° |
| 2026-04-26 07:46 | 56.00766 | 101.97143 | 37369 ft | 497 kts | 155° |
| 2026-04-26 07:47 | 55.94407 | 102.02054 | 37398 ft | 498 kts | 155° |
| 2026-04-26 07:47 | 55.88050 | 102.06945 | 37385 ft | 497 kts | 155° |
| 2026-04-26 07:48 | 55.81697 | 102.11818 | 37382 ft | 497 kts | 155° |
| 2026-04-26 07:48 | 55.75342 | 102.16682 | 37382 ft | 497 kts | 155° |
| 2026-04-26 07:49 | 55.68975 | 102.21532 | 37350 ft | 498 kts | 155° |
| 2026-04-26 07:49 | 55.62651 | 102.26326 | 37353 ft | 497 kts | 155° |
| 2026-04-26 07:50 | 55.53106 | 102.33535 | 37363 ft | 497 kts | 155° |
| 2026-04-26 07:50 | 55.46735 | 102.38323 | 37384 ft | 497 kts | 155° |
| 2026-04-26 07:51 | 55.40366 | 102.43094 | 37352 ft | 497 kts | 155° |
| 2026-04-26 07:51 | 55.33998 | 102.47841 | 37341 ft | 497 kts | 156° |
| 2026-04-26 07:52 | 55.28697 | 102.51777 | 37343 ft | 497 kts | 155° |
| 2026-04-26 07:52 | 55.21287 | 102.57261 | 37347 ft | 497 kts | 156° |
| 2026-04-26 07:53 | 55.14913 | 102.61959 | 37341 ft | 497 kts | 156° |
| 2026-04-26 07:53 | 55.09573 | 102.65878 | 37326 ft | 497 kts | 156° |
| 2026-04-26 07:54 | 55.03197 | 102.70538 | 37366 ft | 497 kts | 156° |
| 2026-04-26 07:54 | 54.96853 | 102.75163 | 37352 ft | 497 kts | 156° |
| 2026-04-26 07:55 | 54.90470 | 102.79822 | 37347 ft | 498 kts | 156° |
| 2026-04-26 07:55 | 54.84083 | 102.84453 | 37318 ft | 498 kts | 156° |
| 2026-04-26 07:56 | 54.77674 | 102.89072 | 37324 ft | 498 kts | 156° |
| 2026-04-26 07:56 | 54.71277 | 102.93663 | 37329 ft | 498 kts | 156° |
| 2026-04-26 07:57 | 54.64870 | 102.98262 | 37333 ft | 498 kts | 156° |
| 2026-04-26 07:57 | 54.58470 | 103.02858 | 37371 ft | 498 kts | 156° |
| 2026-04-26 07:58 | 54.52068 | 103.07420 | 37341 ft | 498 kts | 156° |
| 2026-04-26 07:58 | 54.45665 | 103.11957 | 37338 ft | 498 kts | 156° |
| 2026-04-26 07:59 | 54.39262 | 103.16496 | 37334 ft | 498 kts | 156° |
| 2026-04-26 07:59 | 54.32854 | 103.21011 | 37330 ft | 498 kts | 156° |
| 2026-04-26 08:00 | 54.26453 | 103.25543 | 37316 ft | 498 kts | 156° |
| 2026-04-26 08:00 | 54.20056 | 103.30147 | 37321 ft | 498 kts | 156° |
| 2026-04-26 08:01 | 54.13711 | 103.34706 | 37365 ft | 499 kts | 156° |
| 2026-04-26 08:01 | 54.07317 | 103.39273 | 36833 ft | 497 kts | 156° |
| 2026-04-26 08:02 | 54.04118 | 103.41543 | 36579 ft | 499 kts | 156° |
| 2026-04-26 08:02 | 54.00897 | 103.43819 | 35859 ft | 505 kts | 156° |
| 2026-04-26 08:02 | 53.97631 | 103.46121 | 34907 ft | 512 kts | 156° |
| 2026-04-26 08:02 | 53.94322 | 103.48453 | 33851 ft | 519 kts | 156° |
| 2026-04-26 08:03 | 53.90974 | 103.50817 | 33040 ft | 519 kts | 156° |
| 2026-04-26 08:03 | 53.87660 | 103.53153 | 32422 ft | 514 kts | 156° |
| 2026-04-26 08:03 | 53.84364 | 103.55469 | 31739 ft | 512 kts | 156° |
| 2026-04-26 08:03 | 53.81079 | 103.57770 | 31071 ft | 509 kts | 156° |
| 2026-04-26 08:04 | 53.77812 | 103.60054 | 30406 ft | 506 kts | 156° |
| 2026-04-26 08:04 | 53.74567 | 103.62320 | 29712 ft | 502 kts | 156° |
| 2026-04-26 08:04 | 53.71356 | 103.64556 | 29027 ft | 497 kts | 156° |
| 2026-04-26 08:04 | 53.68178 | 103.66770 | 28416 ft | 493 kts | 156° |
| 2026-04-26 08:05 | 53.65014 | 103.68973 | 27782 ft | 489 kts | 156° |
| 2026-04-26 08:05 | 53.61884 | 103.71151 | 27171 ft | 485 kts | 156° |
| 2026-04-26 08:05 | 53.58778 | 103.73311 | 26566 ft | 481 kts | 156° |
| 2026-04-26 08:05 | 53.55692 | 103.75450 | 25994 ft | 477 kts | 156° |
| 2026-04-26 08:06 | 53.52636 | 103.77560 | 25420 ft | 473 kts | 156° |
| 2026-04-26 08:06 | 53.49602 | 103.79652 | 24872 ft | 469 kts | 156° |
| 2026-04-26 08:06 | 53.46593 | 103.81725 | 24314 ft | 466 kts | 156° |
| 2026-04-26 08:06 | 53.43598 | 103.83783 | 23700 ft | 463 kts | 156° |
| 2026-04-26 08:07 | 53.40640 | 103.85810 | 23192 ft | 457 kts | 156° |
| 2026-04-26 08:07 | 53.37744 | 103.87914 | 22689 ft | 450 kts | 150° |
| 2026-04-26 08:07 | 53.35063 | 103.90417 | 22183 ft | 444 kts | 148° |
| 2026-04-26 08:07 | 53.32379 | 103.92944 | 21676 ft | 440 kts | 148° |
| 2026-04-26 08:08 | 53.29722 | 103.95437 | 21183 ft | 436 kts | 148° |
| 2026-04-26 08:08 | 53.27082 | 103.97906 | 20673 ft | 434 kts | 148° |
| 2026-04-26 08:08 | 53.24455 | 104.00357 | 20142 ft | 431 kts | 149° |
| 2026-04-26 08:08 | 53.21844 | 104.02788 | 19634 ft | 428 kts | 149° |
| 2026-04-26 08:09 | 53.19250 | 104.05204 | 19158 ft | 425 kts | 149° |
| 2026-04-26 08:09 | 53.16677 | 104.07598 | 18655 ft | 423 kts | 149° |
| 2026-04-26 08:09 | 53.14131 | 104.09965 | 18182 ft | 418 kts | 149° |
| 2026-04-26 08:09 | 53.11619 | 104.12295 | 17523 ft | 406 kts | 149° |
| 2026-04-26 08:10 | 53.09183 | 104.14548 | 17129 ft | 397 kts | 149° |
| 2026-04-26 08:10 | 53.06770 | 104.16759 | 16661 ft | 395 kts | 150° |
| 2026-04-26 08:10 | 53.04363 | 104.18942 | 16200 ft | 393 kts | 150° |
| 2026-04-26 08:10 | 53.01965 | 104.21107 | 15741 ft | 391 kts | 150° |
| 2026-04-26 08:11 | 52.99582 | 104.23257 | 15287 ft | 389 kts | 150° |
| 2026-04-26 08:11 | 52.97213 | 104.25393 | 14831 ft | 387 kts | 150° |
| 2026-04-26 08:11 | 52.94858 | 104.27516 | 14376 ft | 385 kts | 150° |
| 2026-04-26 08:11 | 52.92505 | 104.29633 | 13890 ft | 383 kts | 150° |
| 2026-04-26 08:12 | 52.90172 | 104.31727 | 13428 ft | 381 kts | 150° |
| 2026-04-26 08:12 | 52.87857 | 104.33806 | 12939 ft | 377 kts | 150° |
| 2026-04-26 08:12 | 52.85591 | 104.35842 | 12489 ft | 373 kts | 151° |
| 2026-04-26 08:12 | 52.83286 | 104.37910 | 12018 ft | 370 kts | 151° |
| 2026-04-26 08:13 | 52.81056 | 104.39910 | 11560 ft | 367 kts | 151° |
| 2026-04-26 08:13 | 52.78815 | 104.41915 | 11096 ft | 365 kts | 151° |
| 2026-04-26 08:13 | 52.76591 | 104.43903 | 10633 ft | 362 kts | 151° |
| 2026-04-26 08:13 | 52.74380 | 104.45795 | 10444 ft | 351 kts | 156° |
| 2026-04-26 08:14 | 52.72165 | 104.47330 | 10296 ft | 339 kts | 158° |
| 2026-04-26 08:14 | 52.70029 | 104.48816 | 10173 ft | 327 kts | 157° |
| 2026-04-26 08:14 | 52.67963 | 104.50260 | 9921 ft | 318 kts | 157° |
| 2026-04-26 08:14 | 52.65946 | 104.51671 | 9276 ft | 313 kts | 157° |
| 2026-04-26 08:15 | 52.63960 | 104.53060 | 8703 ft | 306 kts | 157° |
| 2026-04-26 08:15 | 52.62014 | 104.54417 | 8237 ft | 302 kts | 157° |
| 2026-04-26 08:15 | 52.60095 | 104.55753 | 7920 ft | 298 kts | 157° |
| 2026-04-26 08:15 | 52.58204 | 104.57068 | 7718 ft | 295 kts | 158° |
| 2026-04-26 08:16 | 52.56342 | 104.58364 | 7571 ft | 294 kts | 158° |
| 2026-04-26 08:16 | 52.54465 | 104.59670 | 7413 ft | 292 kts | 158° |
| 2026-04-26 08:16 | 52.52597 | 104.60968 | 7258 ft | 291 kts | 158° |
| 2026-04-26 08:16 | 52.50735 | 104.62258 | 7102 ft | 289 kts | 158° |
| 2026-04-26 08:17 | 52.48885 | 104.63537 | 6946 ft | 289 kts | 158° |
| 2026-04-26 08:17 | 52.47036 | 104.64812 | 6793 ft | 287 kts | 158° |
| 2026-04-26 08:17 | 52.45200 | 104.66079 | 6635 ft | 286 kts | 158° |
| 2026-04-26 08:17 | 52.43369 | 104.67343 | 6479 ft | 285 kts | 158° |
| 2026-04-26 08:18 | 52.41539 | 104.68606 | 6322 ft | 285 kts | 158° |
| 2026-04-26 08:18 | 52.39716 | 104.69860 | 6174 ft | 284 kts | 158° |
| 2026-04-26 08:18 | 52.37899 | 104.71105 | 6018 ft | 282 kts | 158° |
| 2026-04-26 08:18 | 52.36088 | 104.72346 | 5859 ft | 282 kts | 157° |
| 2026-04-26 08:19 | 52.34278 | 104.73590 | 5717 ft | 283 kts | 157° |
| 2026-04-26 08:19 | 52.32467 | 104.74832 | 5552 ft | 282 kts | 158° |
| 2026-04-26 08:19 | 52.30654 | 104.76073 | 5412 ft | 282 kts | 158° |
| 2026-04-26 08:19 | 52.28765 | 104.76890 | 5263 ft | 281 kts | 177° |
| 2026-04-26 08:20 | 52.26886 | 104.76616 | 5139 ft | 264 kts | 198° |
| 2026-04-26 08:20 | 52.25272 | 104.75421 | 5017 ft | 247 kts | 218° |
| 2026-04-26 08:20 | 52.24012 | 104.73641 | 4916 ft | 234 kts | 228° |
| 2026-04-26 08:20 | 52.22849 | 104.71838 | 4792 ft | 227 kts | 227° |
| 2026-04-26 08:21 | 52.21719 | 104.70105 | 4690 ft | 219 kts | 228° |
| 2026-04-26 08:21 | 52.20795 | 104.68234 | 4578 ft | 206 kts | 246° |
| 2026-04-26 08:21 | 52.20328 | 104.66096 | 4491 ft | 197 kts | 266° |
| 2026-04-26 08:21 | 52.20309 | 104.63918 | 4329 ft | 189 kts | 284° |
| 2026-04-26 08:22 | 52.20699 | 104.61909 | 4164 ft | 184 kts | 297° |
| 2026-04-26 08:22 | 52.21199 | 104.60054 | 4028 ft | 170 kts | 297° |
| 2026-04-26 08:22 | 52.21645 | 104.58392 | 3918 ft | 149 kts | 298° |
| 2026-04-26 08:22 | 52.22044 | 104.56908 | 3768 ft | 138 kts | 299° |
| 2026-04-26 08:23 | 52.22421 | 104.55516 | 3642 ft | 135 kts | 299° |
| 2026-04-26 08:23 | 52.22803 | 104.54096 | 3488 ft | 135 kts | 298° |
| 2026-04-26 08:23 | 52.23179 | 104.52704 | 3334 ft | 137 kts | 297° |
| 2026-04-26 08:23 | 52.23555 | 104.51299 | 3171 ft | 135 kts | 296° |
| 2026-04-26 08:24 | 52.23929 | 104.49903 | 2961 ft | 133 kts | 297° |
| 2026-04-26 08:24 | 52.24298 | 104.48510 | 2717 ft | 134 kts | 298° |
| 2026-04-26 08:24 | 52.24661 | 104.47137 | 2637 ft | 131 kts | 300° |
| 2026-04-26 08:24 | 52.25028 | 104.45770 | 2477 ft | 132 kts | 297° |
| 2026-04-26 08:25 | 52.25393 | 104.44373 | 2261 ft | 134 kts | 297° |
| 2026-04-26 08:25 | 52.25762 | 104.42977 | 2010 ft | 133 kts | 298° |
| 2026-04-26 08:25 | 52.26140 | 104.41593 | 1781 ft | 133 kts | 298° |
| 2026-04-26 08:25 | 52.26512 | 104.40243 | 1676 ft | 116 kts | 295° |
| 2026-04-26 08:26 | 52.26726 | 104.39446 | 1636 ft | 55 kts | 294° |
| 2026-04-26 08:26 | 52.26867 | 104.38906 | 1617 ft | 50 kts | 292° |
| 2026-04-26 08:26 | 52.26989 | 104.38436 | 1610 ft | 35 kts | 294° |
| 2026-04-26 08:26 | 52.27056 | 104.38150 | 1597 ft | 15 kts | 253° |
| 2026-04-26 08:27 | 52.26962 | 104.38057 | 1599 ft | 17 kts | 204° |
| 2026-04-26 08:27 | 52.26932 | 104.38035 | 1599 ft | 0 kts | 204° |
| 2026-04-26 08:28 | 52.26931 | 104.38034 | 1599 ft | 1 kts | 204° |
| 2026-04-26 08:28 | 52.26880 | 104.37995 | 1599 ft | 10 kts | 205° |
| 2026-04-26 08:29 | 52.26835 | 104.37925 | 1598 ft | 9 kts | 260° |
| 2026-04-26 08:29 | 52.26861 | 104.37809 | 1594 ft | 14 kts | 294° |
| 2026-04-26 08:29 | 52.26910 | 104.37628 | 1590 ft | 20 kts | 293° |
| 2026-04-26 08:29 | 52.26971 | 104.37403 | 1586 ft | 23 kts | 294° |
| 2026-04-26 08:30 | 52.26986 | 104.37153 | 1585 ft | 21 kts | 275° |
| 2026-04-26 08:30 | 52.27036 | 104.36926 | 1585 ft | 19 kts | 289° |
| 2026-04-26 08:30 | 52.27050 | 104.36862 | 1585 ft | 0 kts | 290° |
| 2026-04-26 08:31 | 52.27047 | 104.36876 | 1585 ft | 2 kts | 278° |
| 2026-04-26 08:31 | 52.27044 | 104.36903 | 1585 ft | 2 kts | 272° |
| 2026-04-26 08:31 | 52.27045 | 104.36929 | 1584 ft | 2 kts | 247° |
| 2026-04-26 08:31 | 52.27054 | 104.36952 | 1584 ft | 2 kts | 218° |
| 2026-04-26 08:32 | 52.27067 | 104.36966 | 1584 ft | 2 kts | 200° |
| 2026-04-26 08:32 | 52.27071 | 104.36969 | 1585 ft | 0 kts | 198° |